WJA1552 CYYC-KSEA
Flight info
| Callsign | WJA1552 |
|---|---|
| Flight time | 1h 13m |
| Altitude | 36000 |
| Route | DUMRA Q890 MEKPI DCT TWIGY DCT GEG GLASR3 |
| Aircraft | B737/M-SDE2E3FGHIRWXY/LB1 |
Departure
| Time | 2026-05-05 02:53 |
|---|---|
| Airport | Calgary International Airport (CYYC) |
Arrival
| Time | 2026-05-05 04:07 |
|---|---|
| Airport | Seattle–Tacoma International Airport (KSEA) |
| Time | Latitude | Longitude | Altitude | Speed | Heading |
|---|---|---|---|---|---|
| 2026-05-05 02:47 | 51.11948 | -114.01760 | 3565 ft | 23 kts | 210° |
| 2026-05-05 02:47 | 51.11794 | -114.01795 | 3561 ft | 22 kts | 180° |
| 2026-05-05 02:48 | 51.11640 | -114.01795 | 3560 ft | 22 kts | 180° |
| 2026-05-05 02:48 | 51.11491 | -114.01796 | 3562 ft | 21 kts | 180° |
| 2026-05-05 02:48 | 51.11345 | -114.01795 | 3560 ft | 21 kts | 180° |
| 2026-05-05 02:48 | 51.11204 | -114.01795 | 3560 ft | 20 kts | 180° |
| 2026-05-05 02:49 | 51.11068 | -114.01795 | 3559 ft | 19 kts | 180° |
| 2026-05-05 02:49 | 51.10935 | -114.01795 | 3558 ft | 20 kts | 180° |
| 2026-05-05 02:49 | 51.10788 | -114.01796 | 3557 ft | 22 kts | 180° |
| 2026-05-05 02:49 | 51.10632 | -114.01796 | 3556 ft | 22 kts | 180° |
| 2026-05-05 02:50 | 51.10480 | -114.01797 | 3555 ft | 22 kts | 180° |
| 2026-05-05 02:50 | 51.10333 | -114.01797 | 3554 ft | 21 kts | 180° |
| 2026-05-05 02:50 | 51.10189 | -114.01798 | 3553 ft | 20 kts | 180° |
| 2026-05-05 02:50 | 51.10050 | -114.01797 | 3552 ft | 20 kts | 179° |
| 2026-05-05 02:51 | 51.09916 | -114.01796 | 3551 ft | 19 kts | 180° |
| 2026-05-05 02:51 | 51.09785 | -114.01796 | 3549 ft | 18 kts | 180° |
| 2026-05-05 02:51 | 51.09692 | -114.01892 | 3549 ft | 18 kts | 260° |
| 2026-05-05 02:51 | 51.09690 | -114.01949 | 3549 ft | 0 kts | 270° |
| 2026-05-05 02:52 | 51.09690 | -114.01951 | 3549 ft | 1 kts | 270° |
| 2026-05-05 02:52 | 51.09692 | -114.02072 | 3549 ft | 19 kts | 280° |
| 2026-05-05 02:52 | 51.09809 | -114.02136 | 3547 ft | 35 kts | 360° |
| 2026-05-05 02:53 | 51.10321 | -114.02136 | 3554 ft | 110 kts | 359° |
| 2026-05-05 02:53 | 51.11233 | -114.02135 | 3897 ft | 139 kts | 2° |
| 2026-05-05 02:53 | 51.12256 | -114.02184 | 4674 ft | 152 kts | 359° |
| 2026-05-05 02:53 | 51.13353 | -114.02214 | 5403 ft | 166 kts | 2° |
| 2026-05-05 02:54 | 51.14614 | -114.02202 | 5741 ft | 199 kts | 0° |
| 2026-05-05 02:54 | 51.16100 | -114.02227 | 6113 ft | 227 kts | 0° |
| 2026-05-05 02:54 | 51.17795 | -114.02296 | 6611 ft | 252 kts | 358° |
| 2026-05-05 02:54 | 51.19553 | -114.02439 | 7713 ft | 252 kts | 352° |
| 2026-05-05 02:55 | 51.21162 | -114.03462 | 8836 ft | 253 kts | 324° |
| 2026-05-05 02:55 | 51.22385 | -114.05490 | 9961 ft | 257 kts | 306° |
| 2026-05-05 02:55 | 51.23147 | -114.08145 | 10674 ft | 277 kts | 288° |
| 2026-05-05 02:55 | 51.23240 | -114.11320 | 11343 ft | 299 kts | 265° |
| 2026-05-05 02:56 | 51.22472 | -114.14479 | 12238 ft | 317 kts | 243° |
| 2026-05-05 02:56 | 51.20914 | -114.17099 | 13164 ft | 336 kts | 221° |
| 2026-05-05 02:56 | 51.18774 | -114.18789 | 14082 ft | 354 kts | 201° |
| 2026-05-05 02:56 | 51.16302 | -114.19452 | 14888 ft | 367 kts | 189° |
| 2026-05-05 02:57 | 51.13707 | -114.19669 | 15612 ft | 380 kts | 186° |
| 2026-05-05 02:57 | 51.11030 | -114.19772 | 16369 ft | 389 kts | 186° |
| 2026-05-05 02:57 | 51.08291 | -114.19897 | 17127 ft | 398 kts | 186° |
| 2026-05-05 02:57 | 51.05497 | -114.20082 | 17930 ft | 406 kts | 188° |
| 2026-05-05 02:58 | 51.02643 | -114.20326 | 18658 ft | 415 kts | 188° |
| 2026-05-05 02:58 | 50.99742 | -114.20615 | 19401 ft | 420 kts | 189° |
| 2026-05-05 02:58 | 50.96808 | -114.20928 | 20193 ft | 424 kts | 189° |
| 2026-05-05 02:58 | 50.93886 | -114.21252 | 20965 ft | 429 kts | 189° |
| 2026-05-05 02:59 | 50.90888 | -114.21587 | 21713 ft | 434 kts | 189° |
| 2026-05-05 02:59 | 50.87861 | -114.21926 | 22492 ft | 438 kts | 188° |
| 2026-05-05 02:59 | 50.84802 | -114.22267 | 23216 ft | 444 kts | 188° |
| 2026-05-05 02:59 | 50.81692 | -114.22611 | 23903 ft | 450 kts | 188° |
| 2026-05-05 03:00 | 50.78553 | -114.22958 | 24505 ft | 455 kts | 188° |
| 2026-05-05 03:00 | 50.75373 | -114.23308 | 25090 ft | 461 kts | 188° |
| 2026-05-05 03:00 | 50.72158 | -114.23661 | 25671 ft | 466 kts | 188° |
| 2026-05-05 03:00 | 50.68907 | -114.24018 | 26280 ft | 470 kts | 188° |
| 2026-05-05 03:01 | 50.65637 | -114.24423 | 26908 ft | 472 kts | 192° |
| 2026-05-05 03:01 | 50.62418 | -114.25389 | 27494 ft | 469 kts | 202° |
| 2026-05-05 03:01 | 50.59309 | -114.26963 | 28046 ft | 471 kts | 205° |
| 2026-05-05 03:01 | 50.56192 | -114.28654 | 28563 ft | 476 kts | 206° |
| 2026-05-05 03:02 | 50.53040 | -114.30365 | 29103 ft | 481 kts | 205° |
| 2026-05-05 03:02 | 50.49852 | -114.32056 | 29644 ft | 486 kts | 205° |
| 2026-05-05 03:02 | 50.46629 | -114.33725 | 30090 ft | 491 kts | 204° |
| 2026-05-05 03:02 | 50.43370 | -114.35394 | 30547 ft | 495 kts | 204° |
| 2026-05-05 03:03 | 50.40084 | -114.37071 | 30960 ft | 498 kts | 204° |
| 2026-05-05 03:03 | 50.36787 | -114.38759 | 31491 ft | 498 kts | 204° |
| 2026-05-05 03:03 | 50.33490 | -114.40452 | 31973 ft | 500 kts | 204° |
| 2026-05-05 03:03 | 50.30176 | -114.42153 | 32380 ft | 503 kts | 204° |
| 2026-05-05 03:04 | 50.26871 | -114.43975 | 32771 ft | 502 kts | 211° |
| 2026-05-05 03:04 | 50.23768 | -114.46378 | 33231 ft | 493 kts | 220° |
| 2026-05-05 03:04 | 50.20980 | -114.49368 | 33746 ft | 483 kts | 228° |
| 2026-05-05 03:04 | 50.18334 | -114.52591 | 34136 ft | 483 kts | 229° |
| 2026-05-05 03:05 | 50.15700 | -114.55858 | 34453 ft | 484 kts | 229° |
| 2026-05-05 03:05 | 50.13052 | -114.59141 | 34725 ft | 488 kts | 229° |
| 2026-05-05 03:05 | 50.10379 | -114.62427 | 35066 ft | 490 kts | 229° |
| 2026-05-05 03:05 | 50.07700 | -114.65684 | 35551 ft | 487 kts | 227° |
| 2026-05-05 03:06 | 50.05030 | -114.68900 | 36043 ft | 483 kts | 227° |
| 2026-05-05 03:06 | 50.02383 | -114.72074 | 36165 ft | 480 kts | 227° |
| 2026-05-05 03:06 | 49.99738 | -114.75241 | 36159 ft | 480 kts | 227° |
| 2026-05-05 03:07 | 49.94446 | -114.81560 | 36173 ft | 479 kts | 227° |
| 2026-05-05 03:07 | 49.89148 | -114.87887 | 36115 ft | 480 kts | 227° |
| 2026-05-05 03:08 | 49.83862 | -114.94172 | 36148 ft | 479 kts | 227° |
| 2026-05-05 03:08 | 49.78598 | -115.00415 | 36128 ft | 480 kts | 227° |
| 2026-05-05 03:09 | 49.73307 | -115.06671 | 36122 ft | 479 kts | 227° |
| 2026-05-05 03:09 | 49.68008 | -115.12917 | 36041 ft | 480 kts | 227° |
| 2026-05-05 03:10 | 49.62712 | -115.19147 | 36095 ft | 477 kts | 226° |
| 2026-05-05 03:10 | 49.57417 | -115.25358 | 36096 ft | 478 kts | 226° |
| 2026-05-05 03:11 | 49.52110 | -115.31558 | 36111 ft | 480 kts | 226° |
| 2026-05-05 03:11 | 49.46763 | -115.37795 | 36068 ft | 484 kts | 226° |
| 2026-05-05 03:12 | 49.41394 | -115.44034 | 36034 ft | 482 kts | 226° |
| 2026-05-05 03:12 | 49.36043 | -115.50234 | 36032 ft | 481 kts | 226° |
| 2026-05-05 03:13 | 49.30705 | -115.56405 | 36029 ft | 480 kts | 226° |
| 2026-05-05 03:13 | 49.25378 | -115.62547 | 36040 ft | 478 kts | 226° |
| 2026-05-05 03:14 | 49.20069 | -115.68651 | 35988 ft | 476 kts | 225° |
| 2026-05-05 03:14 | 49.14774 | -115.74724 | 35982 ft | 475 kts | 225° |
| 2026-05-05 03:15 | 49.09520 | -115.80733 | 35991 ft | 475 kts | 225° |
| 2026-05-05 03:15 | 49.04208 | -115.86797 | 35986 ft | 479 kts | 225° |
| 2026-05-05 03:16 | 48.98847 | -115.92897 | 35921 ft | 483 kts | 225° |
| 2026-05-05 03:16 | 48.93492 | -115.99064 | 35937 ft | 482 kts | 227° |
| 2026-05-05 03:17 | 48.88308 | -116.05478 | 35930 ft | 480 kts | 228° |
| 2026-05-05 03:17 | 48.83160 | -116.11921 | 35948 ft | 479 kts | 228° |
| 2026-05-05 03:18 | 48.77995 | -116.18316 | 35907 ft | 478 kts | 227° |
| 2026-05-05 03:18 | 48.72832 | -116.24643 | 35897 ft | 476 kts | 227° |
| 2026-05-05 03:19 | 48.65139 | -116.34020 | 35901 ft | 476 kts | 227° |
| 2026-05-05 03:19 | 48.59998 | -116.40275 | 35906 ft | 476 kts | 227° |
| 2026-05-05 03:20 | 48.54839 | -116.46533 | 35909 ft | 475 kts | 226° |
| 2026-05-05 03:20 | 48.49678 | -116.52776 | 35900 ft | 476 kts | 227° |
| 2026-05-05 03:21 | 48.44512 | -116.59010 | 35897 ft | 476 kts | 226° |
| 2026-05-05 03:21 | 48.39332 | -116.65241 | 35898 ft | 477 kts | 226° |
| 2026-05-05 03:22 | 48.34144 | -116.71463 | 35848 ft | 477 kts | 226° |
| 2026-05-05 03:22 | 48.28958 | -116.77666 | 35877 ft | 476 kts | 226° |
| 2026-05-05 03:23 | 48.23787 | -116.83842 | 35890 ft | 474 kts | 226° |
| 2026-05-05 03:23 | 48.18623 | -116.89990 | 35894 ft | 474 kts | 226° |
| 2026-05-05 03:24 | 48.13466 | -116.96113 | 35914 ft | 473 kts | 226° |
| 2026-05-05 03:24 | 48.08305 | -117.02225 | 35903 ft | 472 kts | 225° |
| 2026-05-05 03:25 | 48.03142 | -117.08322 | 35915 ft | 473 kts | 225° |
| 2026-05-05 03:25 | 47.97960 | -117.14428 | 35892 ft | 476 kts | 225° |
| 2026-05-05 03:26 | 47.92763 | -117.20534 | 35879 ft | 476 kts | 225° |
| 2026-05-05 03:26 | 47.87562 | -117.26626 | 35864 ft | 474 kts | 225° |
| 2026-05-05 03:27 | 47.82373 | -117.32689 | 35866 ft | 474 kts | 225° |
| 2026-05-05 03:27 | 47.77184 | -117.38739 | 35856 ft | 474 kts | 225° |
| 2026-05-05 03:28 | 47.71997 | -117.44770 | 35862 ft | 474 kts | 225° |
| 2026-05-05 03:28 | 47.66843 | -117.50749 | 35843 ft | 473 kts | 224° |
| 2026-05-05 03:29 | 47.61661 | -117.56749 | 35852 ft | 472 kts | 226° |
| 2026-05-05 03:29 | 47.59437 | -117.60185 | 35839 ft | 452 kts | 246° |
| 2026-05-05 03:29 | 47.58074 | -117.64239 | 35873 ft | 431 kts | 263° |
| 2026-05-05 03:30 | 47.57297 | -117.71354 | 35859 ft | 408 kts | 284° |
| 2026-05-05 03:30 | 47.57986 | -117.79544 | 35852 ft | 403 kts | 290° |
| 2026-05-05 03:31 | 47.58848 | -117.87828 | 35847 ft | 405 kts | 289° |
| 2026-05-05 03:31 | 47.59675 | -117.96103 | 35844 ft | 406 kts | 289° |
| 2026-05-05 03:32 | 47.60462 | -118.04378 | 35837 ft | 405 kts | 289° |
| 2026-05-05 03:32 | 47.61223 | -118.12562 | 35816 ft | 402 kts | 289° |
| 2026-05-05 03:33 | 47.61978 | -118.20754 | 35816 ft | 400 kts | 289° |
| 2026-05-05 03:33 | 47.62725 | -118.28914 | 35821 ft | 399 kts | 289° |
| 2026-05-05 03:34 | 47.63466 | -118.37057 | 35784 ft | 399 kts | 288° |
| 2026-05-05 03:34 | 47.64204 | -118.45217 | 35816 ft | 400 kts | 288° |
| 2026-05-05 03:35 | 47.64939 | -118.53421 | 35820 ft | 403 kts | 288° |
| 2026-05-05 03:35 | 47.65673 | -118.61693 | 35800 ft | 406 kts | 288° |
| 2026-05-05 03:36 | 47.66404 | -118.70014 | 35801 ft | 408 kts | 288° |
| 2026-05-05 03:36 | 47.67130 | -118.78362 | 35808 ft | 408 kts | 288° |
| 2026-05-05 03:37 | 47.67850 | -118.86715 | 35803 ft | 407 kts | 288° |
| 2026-05-05 03:37 | 47.68562 | -118.95040 | 35791 ft | 406 kts | 287° |
| 2026-05-05 03:38 | 47.69268 | -119.03357 | 35792 ft | 406 kts | 287° |
| 2026-05-05 03:38 | 47.69969 | -119.11674 | 35788 ft | 406 kts | 287° |
| 2026-05-05 03:39 | 47.70664 | -119.20001 | 35797 ft | 407 kts | 287° |
| 2026-05-05 03:39 | 47.71354 | -119.28347 | 35798 ft | 408 kts | 287° |
| 2026-05-05 03:40 | 47.72039 | -119.36714 | 35800 ft | 408 kts | 287° |
| 2026-05-05 03:40 | 47.72713 | -119.45013 | 35765 ft | 407 kts | 287° |
| 2026-05-05 03:41 | 47.73382 | -119.53335 | 35784 ft | 405 kts | 287° |
| 2026-05-05 03:41 | 47.74043 | -119.61649 | 35791 ft | 405 kts | 286° |
| 2026-05-05 03:42 | 47.74372 | -119.65803 | 35653 ft | 407 kts | 286° |
| 2026-05-05 03:42 | 47.74703 | -119.69993 | 35197 ft | 407 kts | 286° |
| 2026-05-05 03:42 | 47.75030 | -119.74170 | 34644 ft | 408 kts | 286° |
| 2026-05-05 03:42 | 47.75356 | -119.78353 | 34154 ft | 406 kts | 286° |
| 2026-05-05 03:43 | 47.75676 | -119.82510 | 33745 ft | 403 kts | 285° |
| 2026-05-05 03:43 | 47.75993 | -119.86635 | 33263 ft | 400 kts | 285° |
| 2026-05-05 03:43 | 47.76306 | -119.90726 | 32820 ft | 397 kts | 285° |
| 2026-05-05 03:43 | 47.76616 | -119.94779 | 32387 ft | 393 kts | 285° |
| 2026-05-05 03:44 | 47.76922 | -119.98805 | 31989 ft | 389 kts | 285° |
| 2026-05-05 03:44 | 47.77225 | -120.02788 | 31589 ft | 387 kts | 285° |
| 2026-05-05 03:44 | 47.77528 | -120.06755 | 31154 ft | 384 kts | 285° |
| 2026-05-05 03:44 | 47.77821 | -120.10677 | 30786 ft | 379 kts | 285° |
| 2026-05-05 03:45 | 47.78108 | -120.14552 | 30365 ft | 374 kts | 285° |
| 2026-05-05 03:45 | 47.78390 | -120.18369 | 30046 ft | 370 kts | 285° |
| 2026-05-05 03:45 | 47.78670 | -120.22165 | 29619 ft | 368 kts | 285° |
| 2026-05-05 03:45 | 47.78945 | -120.25929 | 29183 ft | 364 kts | 285° |
| 2026-05-05 03:46 | 47.79216 | -120.29648 | 28772 ft | 360 kts | 285° |
| 2026-05-05 03:46 | 47.79486 | -120.33331 | 28369 ft | 357 kts | 285° |
| 2026-05-05 03:46 | 47.79753 | -120.36986 | 27940 ft | 353 kts | 285° |
| 2026-05-05 03:46 | 47.80009 | -120.40547 | 27580 ft | 348 kts | 284° |
| 2026-05-05 03:47 | 47.80268 | -120.44129 | 27188 ft | 349 kts | 284° |
| 2026-05-05 03:47 | 47.80531 | -120.47734 | 26780 ft | 351 kts | 284° |
| 2026-05-05 03:47 | 47.80786 | -120.51381 | 26405 ft | 357 kts | 284° |
| 2026-05-05 03:47 | 47.81055 | -120.55088 | 25989 ft | 363 kts | 284° |
| 2026-05-05 03:48 | 47.81322 | -120.58820 | 25547 ft | 362 kts | 283° |
| 2026-05-05 03:48 | 47.81584 | -120.62534 | 25153 ft | 359 kts | 284° |
| 2026-05-05 03:48 | 47.81841 | -120.66215 | 24743 ft | 357 kts | 283° |
| 2026-05-05 03:48 | 47.82097 | -120.69882 | 24308 ft | 355 kts | 283° |
| 2026-05-05 03:49 | 47.82351 | -120.73530 | 23903 ft | 353 kts | 283° |
| 2026-05-05 03:49 | 47.82602 | -120.77153 | 23477 ft | 352 kts | 283° |
| 2026-05-05 03:49 | 47.82850 | -120.80766 | 23000 ft | 350 kts | 283° |
| 2026-05-05 03:49 | 47.83095 | -120.84351 | 22550 ft | 347 kts | 283° |
| 2026-05-05 03:50 | 47.83336 | -120.87901 | 22122 ft | 343 kts | 282° |
| 2026-05-05 03:50 | 47.83574 | -120.91424 | 21712 ft | 340 kts | 282° |
| 2026-05-05 03:50 | 47.83810 | -120.94922 | 21295 ft | 338 kts | 282° |
| 2026-05-05 03:50 | 47.84041 | -120.98348 | 20871 ft | 336 kts | 282° |
| 2026-05-05 03:51 | 47.84275 | -121.01835 | 20486 ft | 333 kts | 282° |
| 2026-05-05 03:51 | 47.84502 | -121.05252 | 20093 ft | 331 kts | 281° |
| 2026-05-05 03:51 | 47.84726 | -121.08609 | 19695 ft | 329 kts | 281° |
| 2026-05-05 03:51 | 47.84950 | -121.11987 | 19297 ft | 327 kts | 281° |
| 2026-05-05 03:52 | 47.85171 | -121.15349 | 18894 ft | 326 kts | 281° |
| 2026-05-05 03:52 | 47.85390 | -121.18701 | 18506 ft | 324 kts | 281° |
| 2026-05-05 03:52 | 47.85606 | -121.22030 | 18104 ft | 322 kts | 280° |
| 2026-05-05 03:52 | 47.85819 | -121.25330 | 17718 ft | 317 kts | 280° |
| 2026-05-05 03:53 | 47.86027 | -121.28583 | 17340 ft | 314 kts | 279° |
| 2026-05-05 03:53 | 47.86235 | -121.31813 | 16912 ft | 312 kts | 279° |
| 2026-05-05 03:53 | 47.86441 | -121.35019 | 16516 ft | 310 kts | 279° |
| 2026-05-05 03:53 | 47.86645 | -121.38208 | 16117 ft | 308 kts | 279° |
| 2026-05-05 03:54 | 47.86845 | -121.41371 | 15724 ft | 307 kts | 279° |
| 2026-05-05 03:54 | 47.87045 | -121.44533 | 15326 ft | 306 kts | 278° |
| 2026-05-05 03:54 | 47.87244 | -121.47681 | 14923 ft | 304 kts | 278° |
| 2026-05-05 03:54 | 47.87438 | -121.50800 | 14544 ft | 300 kts | 278° |
| 2026-05-05 03:55 | 47.87627 | -121.53847 | 14155 ft | 300 kts | 278° |
| 2026-05-05 03:55 | 47.87818 | -121.56933 | 13742 ft | 299 kts | 278° |
| 2026-05-05 03:55 | 47.88009 | -121.60012 | 13325 ft | 298 kts | 278° |
| 2026-05-05 03:55 | 47.88200 | -121.63091 | 12903 ft | 298 kts | 278° |
| 2026-05-05 03:56 | 47.88391 | -121.66203 | 12485 ft | 297 kts | 278° |
| 2026-05-05 03:56 | 47.88336 | -121.69275 | 12055 ft | 301 kts | 257° |
| 2026-05-05 03:56 | 47.87401 | -121.72037 | 11718 ft | 301 kts | 231° |
| 2026-05-05 03:56 | 47.85940 | -121.74200 | 11385 ft | 300 kts | 223° |
| 2026-05-05 03:57 | 47.84378 | -121.76271 | 11020 ft | 300 kts | 222° |
| 2026-05-05 03:57 | 47.82818 | -121.78325 | 10659 ft | 299 kts | 222° |
| 2026-05-05 03:57 | 47.81276 | -121.80382 | 10289 ft | 297 kts | 223° |
| 2026-05-05 03:57 | 47.79751 | -121.82433 | 9933 ft | 294 kts | 223° |
| 2026-05-05 03:58 | 47.78240 | -121.84474 | 9569 ft | 292 kts | 223° |
| 2026-05-05 03:58 | 47.76790 | -121.86567 | 9184 ft | 289 kts | 234° |
| 2026-05-05 03:58 | 47.75773 | -121.89106 | 8847 ft | 284 kts | 244° |
| 2026-05-05 03:58 | 47.74869 | -121.91703 | 8476 ft | 281 kts | 245° |
| 2026-05-05 03:59 | 47.73981 | -121.94278 | 8146 ft | 279 kts | 244° |
| 2026-05-05 03:59 | 47.73097 | -121.96826 | 7807 ft | 276 kts | 244° |
| 2026-05-05 03:59 | 47.72214 | -121.99348 | 7477 ft | 274 kts | 244° |
| 2026-05-05 03:59 | 47.71336 | -122.01841 | 7147 ft | 271 kts | 244° |
| 2026-05-05 04:00 | 47.70459 | -122.04315 | 6819 ft | 270 kts | 245° |
| 2026-05-05 04:00 | 47.69588 | -122.06767 | 6507 ft | 268 kts | 245° |
| 2026-05-05 04:00 | 47.68718 | -122.09209 | 6173 ft | 267 kts | 245° |
| 2026-05-05 04:00 | 47.67851 | -122.11639 | 5837 ft | 266 kts | 245° |
| 2026-05-05 04:01 | 47.66988 | -122.14052 | 5510 ft | 264 kts | 244° |
| 2026-05-05 04:01 | 47.66127 | -122.16458 | 5180 ft | 263 kts | 244° |
| 2026-05-05 04:01 | 47.65269 | -122.18851 | 4864 ft | 262 kts | 244° |
| 2026-05-05 04:01 | 47.64418 | -122.21224 | 4542 ft | 259 kts | 244° |
| 2026-05-05 04:02 | 47.63591 | -122.23525 | 4391 ft | 242 kts | 244° |
| 2026-05-05 04:02 | 47.62838 | -122.25612 | 4214 ft | 223 kts | 244° |
| 2026-05-05 04:02 | 47.62134 | -122.27566 | 4070 ft | 206 kts | 244° |
| 2026-05-05 04:02 | 47.61479 | -122.29381 | 3951 ft | 193 kts | 243° |
| 2026-05-05 04:03 | 47.60737 | -122.30953 | 3800 ft | 183 kts | 215° |
| 2026-05-05 04:03 | 47.59577 | -122.31450 | 3645 ft | 171 kts | 186° |
| 2026-05-05 04:03 | 47.58396 | -122.31626 | 3374 ft | 169 kts | 183° |
| 2026-05-05 04:03 | 47.57226 | -122.31693 | 3039 ft | 171 kts | 180° |
| 2026-05-05 04:04 | 47.56029 | -122.31711 | 2573 ft | 174 kts | 179° |
| 2026-05-05 04:04 | 47.54832 | -122.31720 | 2173 ft | 171 kts | 179° |
| 2026-05-05 04:04 | 47.53675 | -122.31729 | 1868 ft | 162 kts | 181° |
| 2026-05-05 04:04 | 47.52626 | -122.31737 | 1637 ft | 143 kts | 181° |
| 2026-05-05 04:05 | 47.51689 | -122.31745 | 1459 ft | 131 kts | 182° |
| 2026-05-05 04:05 | 47.50792 | -122.31753 | 1306 ft | 127 kts | 182° |
| 2026-05-05 04:05 | 47.49903 | -122.31760 | 1152 ft | 131 kts | 184° |
| 2026-05-05 04:05 | 47.48993 | -122.31768 | 988 ft | 128 kts | 182° |
| 2026-05-05 04:06 | 47.48078 | -122.31778 | 813 ft | 132 kts | 182° |
| 2026-05-05 04:06 | 47.47160 | -122.31781 | 616 ft | 131 kts | 184° |
| 2026-05-05 04:06 | 47.46295 | -122.31786 | 455 ft | 119 kts | 184° |
| 2026-05-05 04:06 | 47.45527 | -122.31797 | 404 ft | 94 kts | 178° |
| 2026-05-05 04:07 | 47.45041 | -122.31800 | 391 ft | 40 kts | 173° |
| 2026-05-05 04:07 | 47.44863 | -122.31728 | 387 ft | 21 kts | 158° |
| 2026-05-05 04:07 | 47.44774 | -122.31657 | 383 ft | 14 kts | 150° |
| 2026-05-05 04:07 | 47.44700 | -122.31572 | 383 ft | 13 kts | 128° |
| 2026-05-05 04:08 | 47.44658 | -122.31460 | 386 ft | 10 kts | 105° |
| 2026-05-05 04:08 | 47.44647 | -122.31363 | 389 ft | 9 kts | 92° |
| 2026-05-05 04:08 | 47.44646 | -122.31268 | 392 ft | 10 kts | 91° |
| 2026-05-05 04:08 | 47.44638 | -122.31153 | 389 ft | 15 kts | 109° |
| 2026-05-05 04:09 | 47.44546 | -122.31014 | 391 ft | 21 kts | 150° |
| 2026-05-05 04:09 | 47.44432 | -122.30921 | 390 ft | 17 kts | 150° |
| 2026-05-05 04:09 | 47.44354 | -122.30797 | 392 ft | 17 kts | 107° |
| 2026-05-05 04:09 | 47.44366 | -122.30657 | 392 ft | 12 kts | 46° |
| 2026-05-05 04:10 | 47.44446 | -122.30633 | 393 ft | 14 kts | 0° |
| 2026-05-05 04:10 | 47.44570 | -122.30631 | 398 ft | 20 kts | 0° |
| 2026-05-05 04:10 | 47.44704 | -122.30630 | 402 ft | 19 kts | 0° |
| 2026-05-05 04:10 | 47.44802 | -122.30578 | 405 ft | 15 kts | 70° |
| 2026-05-05 04:11 | 47.44794 | -122.30435 | 405 ft | 14 kts | 121° |
| 2026-05-05 04:11 | 47.44724 | -122.30310 | 405 ft | 18 kts | 130° |
| 2026-05-05 04:11 | 47.44658 | -122.30257 | 402 ft | 9 kts | 204° |
| 2026-05-05 04:11 | 47.44637 | -122.30300 | 401 ft | 3 kts | 248° |
| 2026-05-05 04:12 | 47.44634 | -122.30312 | 401 ft | 0 kts | 246° |